KBCT/BCT METAR and TAF weather

Enter ICAO airport designator
Station Type Date Time Source
KBCT METAR 2019/06/17 12:47 UTC NOAA

KBCT 171247Z 10010G16KT 7SM HZ SCT019 BKN027 26/24 A3005 RMK LTG DSNT NE


Station Type Date Time Source
KBCT Decoded METAR 2019/06/17 12:47 UTC NOAA

Boca Raton, Boca Raton Airport, FL, United States (KBCT) 26-22-43N 080-06-28W
Jun 17, 2019 - 08:47 AM EDT / 2019.06.17 1247 UTC
Wind: from the E (100 degrees) at 12 MPH (10 KT) gusting to 18 MPH (16 KT):0
Visibility: 7 mile(s):0
Sky conditions: mostly cloudy
Weather: haze; Lightning observed
Temperature: 78 F (26 C)
Dew Point: 75 F (24 C)
Relative Humidity: 88%
Pressure (altimeter): 30.05 in. Hg (1017 hPa)
ob: KBCT 171247Z 10010G16KT 7SM HZ SCT019 BKN027 26/24 A3005 RMK LTG DSNT NE
cycle: 13

Station Type Date Time Source
KBCT TAF UTC NOAA

Error!

Example: see airport list